createdAt,value
2023-05-15T00:01:29.183Z,16.60
2023-05-15T00:06:31.319Z,16.60
2023-05-15T00:11:34.949Z,16.50
2023-05-15T00:16:37.167Z,16.40
2023-05-15T00:21:39.390Z,16.20
2023-05-15T00:26:42.998Z,16.10
2023-05-15T00:31:45.333Z,16.10
2023-05-15T00:36:48.448Z,16.10
2023-05-15T00:41:56.112Z,16.00
2023-05-15T00:46:59.549Z,15.80
2023-05-15T00:52:02.144Z,15.70
2023-05-15T00:57:08.429Z,15.70
2023-05-15T01:02:18.065Z,15.70
2023-05-15T01:07:20.263Z,15.70
2023-05-15T01:12:26.594Z,15.70
2023-05-15T01:17:28.819Z,15.70
2023-05-15T01:22:46.961Z,15.70
2023-05-15T01:27:52.536Z,15.70
2023-05-15T01:33:08.906Z,15.60
2023-05-15T01:38:17.059Z,15.60
2023-05-15T01:43:28.220Z,15.50
2023-05-15T01:48:33.338Z,15.50
2023-05-15T01:53:35.993Z,15.50
2023-05-15T01:58:41.187Z,15.40
2023-05-15T02:03:45.303Z,15.40
2023-05-15T02:08:49.480Z,15.30
2023-05-15T02:13:54.969Z,15.30
2023-05-15T02:18:57.191Z,15.20
2023-05-15T02:23:59.381Z,15.20
2023-05-15T02:29:16.140Z,15.20
2023-05-15T02:34:27.108Z,15.30
2023-05-15T02:39:30.801Z,15.30
2023-05-15T02:44:37.225Z,15.40
2023-05-15T02:49:39.873Z,15.40
2023-05-15T02:54:42.214Z,15.40
2023-05-15T02:59:46.075Z,15.40
2023-05-15T03:04:48.266Z,15.40
2023-05-15T03:09:50.446Z,15.40
2023-05-15T03:14:53.994Z,15.40
2023-05-15T03:19:57.963Z,15.40
2023-05-15T03:25:00.381Z,15.40
2023-05-15T03:30:04.608Z,15.40
2023-05-15T03:35:07.265Z,15.40
2023-05-15T03:40:10.006Z,15.40
2023-05-15T03:45:13.688Z,15.30
2023-05-15T03:50:16.264Z,15.30
2023-05-15T03:55:18.574Z,15.20
2023-05-15T04:00:22.300Z,15.20
2023-05-15T04:05:24.736Z,15.10
2023-05-15T04:10:27.440Z,15.10
2023-05-15T04:15:31.196Z,15.00
2023-05-15T04:20:33.446Z,15.00
2023-05-15T04:25:36.606Z,15.00
2023-05-15T04:30:40.466Z,15.10
2023-05-15T04:35:42.802Z,15.10
2023-05-15T04:40:45.037Z,15.10
2023-05-15T04:45:48.819Z,15.10
2023-05-15T04:50:50.971Z,15.10
2023-05-15T04:55:53.252Z,15.10
2023-05-15T05:00:56.962Z,15.20
2023-05-15T05:05:59.133Z,15.20
2023-05-15T05:11:01.484Z,15.20
2023-05-15T05:16:05.844Z,15.20
2023-05-15T05:21:08.068Z,15.20
2023-05-15T05:26:10.376Z,15.20
2023-05-15T05:31:14.052Z,15.20
2023-05-15T05:36:18.734Z,15.30
2023-05-15T05:41:20.842Z,15.40
2023-05-15T05:46:24.559Z,15.50
2023-05-15T05:51:30.287Z,15.70
2023-05-15T05:56:32.556Z,15.80
2023-05-15T06:01:36.716Z,15.90
2023-05-15T06:06:38.963Z,16.00
2023-05-15T06:11:41.158Z,16.10
2023-05-15T06:16:44.756Z,16.20
2023-05-15T06:21:46.978Z,16.30
2023-05-15T06:26:50.408Z,16.30
2023-05-15T06:31:55.018Z,16.20
2023-05-15T06:36:57.440Z,16.20
2023-05-15T06:41:59.557Z,16.10
2023-05-15T06:47:03.385Z,16.10
2023-05-15T06:52:06.596Z,16.00
2023-05-15T06:57:08.704Z,16.00
2023-05-15T07:02:12.543Z,16.00
2023-05-15T07:07:14.770Z,16.00
2023-05-15T07:12:16.997Z,16.00
2023-05-15T07:17:20.824Z,16.00
2023-05-15T07:22:23.138Z,16.10
2023-05-15T07:27:25.458Z,16.00
2023-05-15T07:32:29.157Z,15.90
2023-05-15T07:37:31.526Z,15.80
2023-05-15T07:42:34.003Z,15.70
2023-05-15T07:47:37.705Z,15.80
2023-05-15T07:52:40.138Z,15.80
2023-05-15T07:57:42.338Z,15.90
2023-05-15T08:02:46.050Z,16.10
2023-05-15T08:07:48.709Z,16.20
2023-05-15T08:12:51.140Z,16.30
2023-05-15T08:17:54.858Z,16.50
2023-05-15T08:22:57.052Z,16.70
2023-05-15T08:27:59.268Z,17.00
2023-05-15T08:33:02.982Z,17.20
2023-05-15T08:38:05.235Z,17.30
2023-05-15T08:43:12.631Z,17.30
2023-05-15T08:48:18.561Z,17.40
2023-05-15T08:53:23.193Z,17.50
2023-05-15T08:58:26.980Z,17.70
2023-05-15T09:03:30.811Z,18.10
2023-05-15T09:08:34.071Z,18.50
2023-05-15T09:13:36.332Z,19.60
2023-05-15T09:18:41.974Z,21.20
2023-05-15T09:23:44.238Z,22.70
2023-05-15T09:28:46.786Z,24.10
2023-05-15T09:34:00.169Z,25.30
2023-05-15T09:39:03.011Z,26.20
2023-05-15T09:44:05.507Z,26.90
2023-05-15T09:49:09.985Z,27.50
2023-05-15T09:54:15.494Z,27.90
2023-05-15T09:59:19.816Z,28.30
2023-05-15T10:04:23.484Z,28.80
2023-05-15T10:09:30.767Z,29.20
2023-05-15T10:14:33.179Z,29.50
2023-05-15T10:19:44.076Z,29.70
2023-05-15T10:25:00.813Z,30.00
2023-05-15T10:30:04.056Z,30.50
2023-05-15T10:35:11.013Z,30.80
2023-05-15T10:40:15.291Z,31.00
2023-05-15T10:45:17.597Z,31.20
2023-05-15T10:50:21.507Z,31.30
2023-05-15T10:55:24.028Z,31.30
2023-05-15T11:00:28.909Z,31.40
2023-05-15T11:06:08.013Z,31.60
2023-05-15T11:11:30.249Z,31.70
2023-05-15T11:16:58.154Z,32.00
2023-05-15T11:22:03.802Z,32.10
2023-05-15T11:27:06.121Z,32.20
2023-05-15T11:32:32.145Z,32.20
2023-05-15T11:37:38.320Z,32.20
2023-05-15T11:42:58.655Z,32.20
2023-05-15T11:48:02.711Z,32.00
2023-05-15T11:53:08.717Z,31.90
2023-05-15T11:58:15.272Z,31.70
2023-05-15T12:03:19.255Z,31.60
2023-05-15T12:08:23.210Z,31.40
2023-05-15T12:13:25.480Z,31.10
2023-05-15T12:18:27.847Z,30.80
2023-05-15T12:23:33.042Z,30.60
2023-05-15T12:28:36.208Z,30.30
2023-05-15T12:33:39.204Z,30.00
2023-05-15T12:38:42.910Z,29.70
2023-05-15T12:43:45.133Z,29.40
2023-05-15T12:48:48.447Z,29.20
2023-05-15T12:53:54.322Z,29.00
2023-05-15T12:58:56.605Z,28.80
2023-05-15T13:03:59.275Z,28.60
2023-05-15T13:09:03.080Z,28.30
2023-05-15T13:14:09.679Z,28.00
2023-05-15T13:19:11.719Z,27.60
2023-05-15T13:24:15.822Z,27.40
2023-05-15T13:29:18.727Z,27.20
2023-05-15T13:34:20.941Z,27.00
2023-05-15T13:39:24.591Z,26.70
2023-05-15T13:44:26.818Z,26.60
2023-05-15T13:49:29.076Z,26.50
2023-05-15T13:54:33.299Z,26.40
2023-05-15T13:59:35.504Z,26.40
2023-05-15T14:04:37.765Z,26.30
2023-05-15T14:09:41.462Z,26.20
2023-05-15T14:14:46.842Z,26.10
2023-05-15T14:19:49.180Z,25.90
2023-05-15T14:24:53.044Z,25.80
2023-05-15T14:29:55.279Z,25.60
2023-05-15T14:34:57.438Z,25.50
2023-05-15T14:40:01.040Z,25.40
2023-05-15T14:45:03.356Z,25.30
2023-05-15T14:50:06.258Z,25.20
2023-05-15T14:55:10.438Z,25.10
2023-05-15T15:00:14.659Z,25.00
2023-05-15T15:05:16.939Z,24.90
2023-05-15T15:10:20.675Z,24.80
2023-05-15T15:15:23.458Z,24.60
2023-05-15T15:20:27.982Z,24.50
2023-05-15T15:25:33.179Z,24.30
2023-05-15T15:30:35.439Z,24.20
2023-05-15T15:35:37.716Z,24.00
2023-05-15T15:40:41.454Z,23.80
2023-05-15T15:45:43.751Z,23.30
2023-05-15T15:50:46.029Z,22.90
2023-05-15T15:55:49.892Z,22.60
2023-05-15T16:00:52.310Z,22.60
2023-05-15T16:05:54.547Z,22.40
2023-05-15T16:10:58.236Z,22.20
2023-05-15T16:16:00.415Z,21.90
2023-05-15T16:21:02.611Z,21.70
2023-05-15T16:26:07.645Z,21.60
2023-05-15T16:31:10.092Z,21.40
2023-05-15T16:36:12.326Z,21.20
2023-05-15T16:41:16.135Z,21.00
2023-05-15T16:46:18.874Z,20.90
2023-05-15T16:51:21.121Z,20.70
2023-05-15T16:56:24.870Z,20.60
2023-05-15T17:01:27.278Z,20.40
2023-05-15T17:06:29.754Z,20.30
2023-05-15T17:11:33.374Z,20.20
2023-05-15T17:16:35.715Z,20.00
2023-05-15T17:21:37.922Z,19.80
2023-05-15T17:26:41.759Z,19.60
2023-05-15T17:31:43.961Z,19.40
2023-05-15T17:36:46.134Z,19.20
2023-05-15T17:41:49.803Z,19.00
2023-05-15T17:46:52.012Z,18.80
2023-05-15T17:51:54.697Z,18.60
2023-05-15T17:56:58.259Z,18.40
2023-05-15T18:02:01.183Z,18.20
2023-05-15T18:07:03.594Z,18.10
2023-05-15T18:12:08.592Z,17.90
2023-05-15T18:17:10.806Z,17.90
2023-05-15T18:22:13.114Z,17.80
2023-05-15T18:27:16.882Z,17.70
2023-05-15T18:32:20.232Z,17.60
2023-05-15T18:37:22.941Z,17.60
2023-05-15T18:42:28.043Z,17.50
2023-05-15T18:47:30.558Z,17.40
2023-05-15T18:52:33.761Z,17.40
2023-05-15T18:57:37.712Z,17.30
2023-05-15T19:02:40.159Z,17.20
2023-05-15T19:07:42.475Z,17.20
2023-05-15T19:12:48.837Z,17.10
2023-05-15T19:17:51.117Z,17.10
2023-05-15T19:22:53.303Z,17.00
2023-05-15T19:27:56.909Z,16.90
2023-05-15T19:32:59.237Z,16.80
2023-05-15T19:38:01.436Z,16.80
2023-05-15T19:43:08.403Z,16.70
2023-05-15T19:48:13.673Z,16.70
2023-05-15T19:53:17.415Z,16.70
2023-05-15T19:58:23.728Z,16.60
2023-05-15T20:03:29.612Z,16.50
2023-05-15T20:08:34.706Z,16.50
2023-05-15T20:13:40.439Z,16.40
2023-05-15T20:18:43.920Z,16.30
2023-05-15T20:23:47.943Z,16.20
2023-05-15T20:28:54.007Z,16.20
2023-05-15T20:33:57.611Z,16.10
2023-05-15T20:39:00.132Z,16.00
2023-05-15T20:44:06.625Z,16.00
2023-05-15T20:49:12.100Z,15.90
2023-05-15T20:54:16.510Z,15.90
2023-05-15T20:59:20.237Z,15.90
2023-05-15T21:04:22.528Z,15.90
2023-05-15T21:09:25.380Z,15.80
2023-05-15T21:14:28.934Z,15.80
2023-05-15T21:19:31.104Z,15.70
2023-05-15T21:24:35.124Z,15.60
2023-05-15T21:29:39.113Z,15.40
2023-05-15T21:34:41.233Z,15.30
2023-05-15T21:39:43.375Z,15.20
2023-05-15T21:44:46.901Z,15.10
2023-05-15T21:49:49.058Z,15.10
2023-05-15T21:54:51.280Z,15.10
2023-05-15T21:59:54.979Z,15.00
2023-05-15T22:04:57.107Z,15.00
2023-05-15T22:09:59.332Z,15.00
2023-05-15T22:15:02.999Z,14.90
2023-05-15T22:20:05.809Z,14.90
2023-05-15T22:25:08.866Z,14.80
2023-05-15T22:30:13.086Z,14.80
2023-05-15T22:35:15.286Z,14.80
2023-05-15T22:40:17.544Z,14.80
2023-05-15T22:45:21.117Z,14.70
2023-05-15T22:50:23.247Z,14.70
2023-05-15T22:55:25.490Z,14.60
2023-05-15T23:00:29.349Z,14.60
2023-05-15T23:05:31.985Z,14.50
2023-05-15T23:10:34.268Z,14.50
2023-05-15T23:15:37.807Z,14.40
2023-05-15T23:20:40.099Z,14.40
2023-05-15T23:25:42.256Z,14.40
2023-05-15T23:30:45.930Z,14.30
2023-05-15T23:35:51.204Z,14.30
2023-05-15T23:41:27.421Z,14.30
2023-05-15T23:46:42.493Z,14.30
2023-05-15T23:52:12.405Z,14.20
2023-05-15T23:57:23.895Z,14.20
